sensor_id;sensor_type;location;lat;lon;timestamp;pressure;altitude;pressure_sealevel;temperature;humidity
47738;BME280;33502;47.182;27.506;2023-04-06T03:31:30;99323.66;;;-0.99;100.00
47738;BME280;33502;47.182;27.506;2023-04-06T03:33:59;99319.31;;;-1.00;100.00
47738;BME280;33502;47.182;27.506;2023-04-06T03:36:29;99313.28;;;-1.00;100.00
47738;BME280;33502;47.182;27.506;2023-04-06T03:38:56;99328.00;;;-1.01;100.00
47738;BME280;33502;47.182;27.506;2023-04-06T03:41:22;99323.66;;;-1.00;100.00
47738;BME280;33502;47.182;27.506;2023-04-06T03:43:56;99315.88;;;-1.02;100.00
47738;BME280;33502;47.182;27.506;2023-04-06T03:46:21;99337.56;;;-1.01;100.00
47738;BME280;33502;47.182;27.506;2023-04-06T03:48:51;99332.34;;;-1.01;100.00
47738;BME280;33502;47.182;27.506;2023-04-06T03:51:19;99330.63;;;-1.01;100.00
47738;BME280;33502;47.182;27.506;2023-04-06T03:53:46;99337.56;;;-1.01;100.00
47738;BME280;33502;47.182;27.506;2023-04-06T03:56:12;99341.00;;;-1.01;100.00
47738;BME280;33502;47.182;27.506;2023-04-06T03:58:38;99335.81;;;-1.02;100.00
47738;BME280;33502;47.182;27.506;2023-04-06T04:01:04;99339.28;;;-1.02;100.00
47738;BME280;33502;47.182;27.506;2023-04-06T04:03:29;99332.31;;;-1.00;100.00
47738;BME280;33502;47.182;27.506;2023-04-06T04:05:55;99341.00;;;-0.99;100.00
47738;BME280;33502;47.182;27.506;2023-04-06T04:08:23;99335.81;;;-1.01;100.00
47738;BME280;33502;47.182;27.506;2023-04-06T04:10:48;99342.69;;;-0.98;100.00
47738;BME280;33502;47.182;27.506;2023-04-06T04:13:14;99334.06;;;-0.99;100.00
47738;BME280;33502;47.182;27.506;2023-04-06T04:15:44;99336.63;;;-0.97;100.00
47738;BME280;33502;47.182;27.506;2023-04-06T04:18:10;99332.28;;;-0.96;100.00
47738;BME280;33502;47.182;27.506;2023-04-06T04:20:35;99334.03;;;-0.95;100.00
47738;BME280;33502;47.182;27.506;2023-04-06T04:23:01;99328.81;;;-0.95;100.00
47738;BME280;33502;47.182;27.506;2023-04-06T04:25:30;99332.28;;;-0.93;100.00
47738;BME280;33502;47.182;27.506;2023-04-06T04:27:56;99332.22;;;-0.92;100.00
47738;BME280;33502;47.182;27.506;2023-04-06T04:30:23;99326.16;;;-0.91;100.00
47738;BME280;33502;47.182;27.506;2023-04-06T04:32:48;99329.63;;;-0.90;100.00
47738;BME280;33502;47.182;27.506;2023-04-06T04:35:18;99336.53;;;-0.88;100.00
47738;BME280;33502;47.182;27.506;2023-04-06T04:37:44;99341.69;;;-0.86;100.00
47738;BME280;33502;47.182;27.506;2023-04-06T04:40:10;99339.94;;;-0.84;100.00
47738;BME280;33502;47.182;27.506;2023-04-06T04:42:56;99341.66;;;-0.83;100.00
47738;BME280;33502;47.182;27.506;2023-04-06T04:45:31;99346.84;;;-0.82;100.00
47738;BME280;33502;47.182;27.506;2023-04-06T04:48:01;99345.94;;;-0.79;100.00
47738;BME280;33502;47.182;27.506;2023-04-06T04:50:34;99347.69;;;-0.80;100.00
47738;BME280;33502;47.182;27.506;2023-04-06T04:53:00;99346.84;;;-0.80;100.00
47738;BME280;33502;47.182;27.506;2023-04-06T04:55:26;99340.75;;;-0.79;100.00
47738;BME280;33502;47.182;27.506;2023-04-06T04:57:55;99331.19;;;-0.79;100.00
47738;BME280;33502;47.182;27.506;2023-04-06T05:00:28;99327.75;;;-0.79;100.00
47738;BME280;33502;47.182;27.506;2023-04-06T05:02:57;99332.03;;;-0.76;100.00
47738;BME280;33502;47.182;27.506;2023-04-06T05:05:28;99340.66;;;-0.73;100.00
47738;BME280;33502;47.182;27.506;2023-04-06T05:07:56;99336.34;;;-0.72;100.00
47738;BME280;33502;47.182;27.506;2023-04-06T05:10:41;99339.75;;;-0.69;100.00
47738;BME280;33502;47.182;27.506;2023-04-06T05:13:07;99331.97;;;-0.69;100.00
47738;BME280;33502;47.182;27.506;2023-04-06T05:15:33;99338.00;;;-0.67;100.00
47738;BME280;33502;47.182;27.506;2023-04-06T05:18:18;99337.09;;;-0.63;100.00
47738;BME280;33502;47.182;27.506;2023-04-06T05:20:44;99349.16;;;-0.60;100.00
47738;BME280;33502;47.182;27.506;2023-04-06T05:23:11;99326.56;;;-0.55;100.00
47738;BME280;33502;47.182;27.506;2023-04-06T05:25:37;99332.63;;;-0.53;100.00
47738;BME280;33502;47.182;27.506;2023-04-06T05:28:12;99323.06;;;-0.54;100.00
47738;BME280;33502;47.182;27.506;2023-04-06T05:30:40;99319.59;;;-0.51;100.00
47738;BME280;33502;47.182;27.506;2023-04-06T05:33:09;99312.63;;;-0.48;100.00
47738;BME280;33502;47.182;27.506;2023-04-06T05:35:48;99318.59;;;-0.44;100.00
47738;BME280;33502;47.182;27.506;2023-04-06T05:38:14;99319.50;;;-0.44;100.00
47738;BME280;33502;47.182;27.506;2023-04-06T05:40:40;99318.59;;;-0.44;100.00
47738;BME280;33502;47.182;27.506;2023-04-06T05:43:09;99310.84;;;-0.46;100.00
47738;BME280;33502;47.182;27.506;2023-04-06T05:45:38;99307.34;;;-0.45;100.00
47738;BME280;33502;47.182;27.506;2023-04-06T05:48:05;99310.81;;;-0.44;100.00
47738;BME280;33502;47.182;27.506;2023-04-06T05:50:31;99324.69;;;-0.45;100.00
47738;BME280;33502;47.182;27.506;2023-04-06T05:52:58;99310.75;;;-0.38;100.00
47738;BME280;33502;47.182;27.506;2023-04-06T05:55:29;99318.38;;;-0.29;100.00
47738;BME280;33502;47.182;27.506;2023-04-06T05:58:07;99305.34;;;-0.27;100.00
47738;BME280;33502;47.182;27.506;2023-04-06T06:00:33;99311.41;;;-0.25;100.00
47738;BME280;33502;47.182;27.506;2023-04-06T06:03:04;99301.88;;;-0.25;100.00
47738;BME280;33502;47.182;27.506;2023-04-06T06:05:32;99308.75;;;-0.21;100.00
47738;BME280;33502;47.182;27.506;2023-04-06T06:08:04;99300.94;;;-0.22;100.00
47738;BME280;33502;47.182;27.506;2023-04-06T06:10:30;99289.63;;;-0.20;100.00
47738;BME280;33502;47.182;27.506;2023-04-06T06:12:56;99285.19;;;-0.11;100.00
47738;BME280;33502;47.182;27.506;2023-04-06T06:15:22;99289.56;;;-0.13;100.00
47738;BME280;33502;47.182;27.506;2023-04-06T06:17:48;99278.25;;;-0.12;100.00
47738;BME280;33502;47.182;27.506;2023-04-06T06:20:14;99264.28;;;-0.07;100.00
47738;BME280;33502;47.182;27.506;2023-04-06T06:22:40;99278.94;;;-0.01;100.00
47738;BME280;33502;47.182;27.506;2023-04-06T06:25:10;99288.47;;;0.00;100.00
47738;BME280;33502;47.182;27.506;2023-04-06T06:27:35;99273.78;;;-0.04;100.00
47738;BME280;33502;47.182;27.506;2023-04-06T06:30:04;99287.66;;;-0.04;100.00
47738;BME280;33502;47.182;27.506;2023-04-06T06:32:31;99275.47;;;-0.02;100.00
47738;BME280;33502;47.182;27.506;2023-04-06T06:34:58;99280.63;;;0.02;100.00
47738;BME280;33502;47.182;27.506;2023-04-06T06:37:24;99275.38;;;0.05;100.00
47738;BME280;33502;47.182;27.506;2023-04-06T06:39:51;99277.81;;;0.14;100.00
47738;BME280;33502;47.182;27.506;2023-04-06T06:42:19;99277.75;;;0.18;100.00
47738;BME280;33502;47.182;27.506;2023-04-06T06:45:00;99284.66;;;0.21;100.00
47738;BME280;33502;47.182;27.506;2023-04-06T06:47:26;99283.00;;;0.15;100.00
47738;BME280;33502;47.182;27.506;2023-04-06T06:49:52;99282.09;;;0.16;100.00
47738;BME280;33502;47.182;27.506;2023-04-06T06:52:18;99290.00;;;0.12;100.00
47738;BME280;33502;47.182;27.506;2023-04-06T06:54:44;99282.06;;;0.19;100.00
47738;BME280;33502;47.182;27.506;2023-04-06T06:57:10;99293.44;;;0.15;100.00
47738;BME280;33502;47.182;27.506;2023-04-06T06:59:36;99280.28;;;0.22;100.00
47738;BME280;33502;47.182;27.506;2023-04-06T07:02:02;99274.25;;;0.19;100.00
47738;BME280;33502;47.182;27.506;2023-04-06T07:04:28;99264.69;;;0.20;100.00
47738;BME280;33502;47.182;27.506;2023-04-06T07:06:54;99275.94;;;0.22;100.00
47738;BME280;33502;47.182;27.506;2023-04-06T07:09:21;99278.44;;;0.28;100.00
47738;BME280;33502;47.182;27.506;2023-04-06T07:11:47;99283.66;;;0.27;100.00
47738;BME280;33502;47.182;27.506;2023-04-06T07:14:15;99286.19;;;0.31;100.00
47738;BME280;33502;47.182;27.506;2023-04-06T07:16:41;99288.78;;;0.33;100.00
47738;BME280;33502;47.182;27.506;2023-04-06T07:19:07;99274.03;;;0.32;100.00
47738;BME280;33502;47.182;27.506;2023-04-06T07:21:35;99285.28;;;0.34;100.00
47738;BME280;33502;47.182;27.506;2023-04-06T07:24:01;99295.69;;;0.34;100.00
47738;BME280;33502;47.182;27.506;2023-04-06T07:26:27;99282.69;;;0.32;100.00
47738;BME280;33502;47.182;27.506;2023-04-06T07:28:53;99279.22;;;0.33;100.00
47738;BME280;33502;47.182;27.506;2023-04-06T07:31:20;99290.47;;;0.34;100.00
47738;BME280;33502;47.182;27.506;2023-04-06T07:33:46;99283.53;;;0.34;100.00
47738;BME280;33502;47.182;27.506;2023-04-06T07:36:12;99288.66;;;0.39;100.00
47738;BME280;33502;47.182;27.506;2023-04-06T07:38:39;99290.31;;;0.45;100.00
47738;BME280;33502;47.182;27.506;2023-04-06T07:41:05;99293.72;;;0.48;100.00
47738;BME280;33502;47.182;27.506;2023-04-06T07:43:32;99300.59;;;0.52;100.00
47738;BME280;33502;47.182;27.506;2023-04-06T07:45:58;99297.03;;;0.56;100.00
47738;BME280;33502;47.182;27.506;2023-04-06T07:48:26;99297.13;;;0.52;100.00
47738;BME280;33502;47.182;27.506;2023-04-06T07:50:52;99288.34;;;0.57;100.00
47738;BME280;33502;47.182;27.506;2023-04-06T07:53:19;99280.44;;;0.62;100.00
47738;BME280;33502;47.182;27.506;2023-04-06T07:55:46;99287.31;;;0.65;100.00
47738;BME280;33502;47.182;27.506;2023-04-06T07:58:11;99285.47;;;0.71;100.00
47738;BME280;33502;47.182;27.506;2023-04-06T08:00:37;99297.50;;;0.78;100.00
47738;BME280;33502;47.182;27.506;2023-04-06T08:03:03;99289.63;;;0.80;100.00
47738;BME280;33502;47.182;27.506;2023-04-06T08:05:29;99282.59;;;0.85;100.00
47738;BME280;33502;47.182;27.506;2023-04-06T08:07:55;99281.75;;;0.83;100.00
47738;BME280;33502;47.182;27.506;2023-04-06T08:10:21;99278.16;;;0.90;100.00
47738;BME280;33502;47.182;27.506;2023-04-06T08:12:46;99281.56;;;0.94;100.00
47738;BME280;33502;47.182;27.506;2023-04-06T08:15:12;99284.84;;;1.02;100.00
47738;BME280;33502;47.182;27.506;2023-04-06T08:17:38;99284.75;;;1.07;100.00
47738;BME280;33502;47.182;27.506;2023-04-06T08:20:04;99299.56;;;1.05;100.00
47738;BME280;33502;47.182;27.506;2023-04-06T08:22:30;99303.22;;;0.96;100.00
47738;BME280;33502;47.182;27.506;2023-04-06T08:24:56;99297.19;;;0.94;100.00
47738;BME280;33502;47.182;27.506;2023-04-06T08:27:22;99306.69;;;0.96;100.00
47738;BME280;33502;47.182;27.506;2023-04-06T08:29:49;99304.13;;;0.93;100.00
47738;BME280;33502;47.182;27.506;2023-04-06T08:32:15;99299.81;;;0.94;100.00
47738;BME280;33502;47.182;27.506;2023-04-06T08:34:41;99306.72;;;0.93;100.00
47738;BME280;33502;47.182;27.506;2023-04-06T08:37:07;99308.44;;;0.96;100.00
47738;BME280;33502;47.182;27.506;2023-04-06T08:39:33;99318.97;;;0.90;100.00
47738;BME280;33502;47.182;27.506;2023-04-06T08:41:59;99312.03;;;0.90;100.00
47738;BME280;33502;47.182;27.506;2023-04-06T08:44:29;99318.19;;;0.86;100.00
47738;BME280;33502;47.182;27.506;2023-04-06T08:46:55;99333.84;;;0.85;100.00
47738;BME280;33502;47.182;27.506;2023-04-06T08:49:22;99326.78;;;0.90;100.00
47738;BME280;33502;47.182;27.506;2023-04-06T08:51:49;99333.59;;;0.98;100.00
47738;BME280;33502;47.182;27.506;2023-04-06T08:54:15;99340.31;;;1.09;100.00
47738;BME280;33502;47.182;27.506;2023-04-06T08:56:42;99329.81;;;1.13;100.00
47738;BME280;33502;47.182;27.506;2023-04-06T08:59:09;99339.25;;;1.19;100.00
47738;BME280;33502;47.182;27.506;2023-04-06T09:01:39;99332.09;;;1.29;100.00
47738;BME280;33502;47.182;27.506;2023-04-06T09:04:07;99331.00;;;1.39;100.00
47738;BME280;33502;47.182;27.506;2023-04-06T09:06:36;99323.78;;;1.52;100.00
47738;BME280;33502;47.182;27.506;2023-04-06T09:09:02;99330.16;;;1.77;100.00
47738;BME280;33502;47.182;27.506;2023-04-06T09:11:29;99333.19;;;1.98;100.00
47738;BME280;33502;47.182;27.506;2023-04-06T09:13:55;99331.94;;;2.14;100.00
47738;BME280;33502;47.182;27.506;2023-04-06T09:16:22;99338.00;;;2.15;100.00
47738;BME280;33502;47.182;27.506;2023-04-06T09:18:49;99336.19;;;2.19;100.00
47738;BME280;33502;47.182;27.506;2023-04-06T09:21:19;99335.75;;;2.35;100.00
47738;BME280;33502;47.182;27.506;2023-04-06T09:23:45;99342.09;;;2.25;100.00
47738;BME280;33502;47.182;27.506;2023-04-06T09:26:15;99337.50;;;2.35;100.00
47738;BME280;33502;47.182;27.506;2023-04-06T09:28:56;99333.25;;;2.31;100.00
47738;BME280;33502;47.182;27.506;2023-04-06T09:31:24;99342.38;;;2.14;100.00
47738;BME280;33502;47.182;27.506;2023-04-06T09:33:50;99351.88;;;2.17;100.00
47738;BME280;33502;47.182;27.506;2023-04-06T09:39:30;99347.25;;;2.28;100.00
47738;BME280;33502;47.182;27.506;2023-04-06T09:41:56;99339.34;;;2.31;100.00
47738;BME280;33502;47.182;27.506;2023-04-06T09:44:22;99356.44;;;2.45;100.00
47738;BME280;33502;47.182;27.506;2023-04-06T09:46:49;99344.50;;;2.34;100.00
47738;BME280;33502;47.182;27.506;2023-04-06T09:49:15;99345.19;;;2.43;100.00
47738;BME280;33502;47.182;27.506;2023-04-06T09:51:47;99346.75;;;2.48;100.00
47738;BME280;33502;47.182;27.506;2023-04-06T09:54:27;99357.94;;;2.53;100.00
47738;BME280;33502;47.182;27.506;2023-04-06T09:56:58;99361.91;;;2.70;100.00
47738;BME280;33502;47.182;27.506;2023-04-06T10:02:05;99365.00;;;2.84;100.00
47738;BME280;33502;47.182;27.506;2023-04-06T10:04:39;99371.41;;;3.05;100.00
47738;BME280;33502;47.182;27.506;2023-04-06T10:07:09;99367.97;;;3.03;100.00
47738;BME280;33502;47.182;27.506;2023-04-06T10:09:37;99373.34;;;2.99;100.00
47738;BME280;33502;47.182;27.506;2023-04-06T10:12:04;99370.91;;;2.92;100.00
47738;BME280;33502;47.182;27.506;2023-04-06T10:14:34;99371.63;;;2.98;100.00
47738;BME280;33502;47.182;27.506;2023-04-06T10:17:04;99382.44;;;2.84;100.00
47738;BME280;33502;47.182;27.506;2023-04-06T10:22:21;99388.97;;;2.67;100.00
47738;BME280;33502;47.182;27.506;2023-04-06T10:24:49;99384.38;;;2.43;100.00
47738;BME280;33502;47.182;27.506;2023-04-06T10:27:15;99384.50;;;2.37;100.00
47738;BME280;33502;47.182;27.506;2023-04-06T10:29:45;99385.41;;;2.35;100.00
47738;BME280;33502;47.182;27.506;2023-04-06T10:32:12;99389.75;;;2.35;100.00
47738;BME280;33502;47.182;27.506;2023-04-06T10:34:38;99392.94;;;2.48;100.00
47738;BME280;33502;47.182;27.506;2023-04-06T10:37:14;99378.19;;;2.45;100.00
47738;BME280;33502;47.182;27.506;2023-04-06T10:40:08;99388.72;;;2.42;100.00
47738;BME280;33502;47.182;27.506;2023-04-06T10:42:43;99397.28;;;2.49;100.00
47738;BME280;33502;47.182;27.506;2023-04-06T10:45:19;99394.09;;;2.36;100.00
47738;BME280;33502;47.182;27.506;2023-04-06T10:47:46;99407.13;;;2.38;100.00
47738;BME280;33502;47.182;27.506;2023-04-06T10:50:15;99399.38;;;2.33;100.00
47738;BME280;33502;47.182;27.506;2023-04-06T10:52:43;99403.16;;;2.21;100.00
47738;BME280;33502;47.182;27.506;2023-04-06T10:55:09;99391.03;;;2.19;100.00
47738;BME280;33502;47.182;27.506;2023-04-06T10:57:36;99399.84;;;2.14;100.00
47738;BME280;33502;47.182;27.506;2023-04-06T11:00:07;99392.03;;;2.13;100.00
47738;BME280;33502;47.182;27.506;2023-04-06T11:02:35;99398.69;;;2.26;100.00
47738;BME280;33502;47.182;27.506;2023-04-06T11:05:03;99392.31;;;2.38;100.00
47738;BME280;33502;47.182;27.506;2023-04-06T11:07:29;99403.19;;;2.20;100.00
47738;BME280;33502;47.182;27.506;2023-04-06T11:09:56;99396.28;;;2.17;100.00
47738;BME280;33502;47.182;27.506;2023-04-06T11:12:26;99398.19;;;2.10;100.00
47738;BME280;33502;47.182;27.506;2023-04-06T11:15:00;99412.88;;;2.16;100.00
47738;BME280;33502;47.182;27.506;2023-04-06T11:17:36;99407.25;;;1.94;100.00
47738;BME280;33502;47.182;27.506;2023-04-06T11:20:04;99408.00;;;2.01;100.00
47738;BME280;33502;47.182;27.506;2023-04-06T11:22:30;99398.09;;;1.76;100.00
47738;BME280;33502;47.182;27.506;2023-04-06T11:25:06;99405.81;;;1.81;100.00
47738;BME280;33502;47.182;27.506;2023-04-06T11:27:36;99407.88;;;1.66;100.00
47738;BME280;33502;47.182;27.506;2023-04-06T11:30:02;99398.91;;;1.78;100.00
47738;BME280;33502;47.182;27.506;2023-04-06T11:32:28;99405.03;;;1.75;100.00
47738;BME280;33502;47.182;27.506;2023-04-06T11:34:57;99410.03;;;1.86;100.00
47738;BME280;33502;47.182;27.506;2023-04-06T11:37:26;99400.22;;;1.98;100.00
47738;BME280;33502;47.182;27.506;2023-04-06T11:39:54;99402.81;;;1.98;100.00
47738;BME280;33502;47.182;27.506;2023-04-06T11:42:25;99405.22;;;2.07;100.00
47738;BME280;33502;47.182;27.506;2023-04-06T11:44:53;99404.34;;;2.06;100.00
47738;BME280;33502;47.182;27.506;2023-04-06T11:47:20;99400.88;;;2.06;100.00
47738;BME280;33502;47.182;27.506;2023-04-06T11:49:52;99403.69;;;1.98;100.00
47738;BME280;33502;47.182;27.506;2023-04-06T11:54:44;99403.31;;;1.76;100.00
47738;BME280;33502;47.182;27.506;2023-04-06T11:57:10;99418.19;;;1.71;100.00
47738;BME280;33502;47.182;27.506;2023-04-06T11:59:36;99424.81;;;1.87;100.00
47738;BME280;33502;47.182;27.506;2023-04-06T12:02:03;99429.94;;;1.92;100.00
47738;BME280;33502;47.182;27.506;2023-04-06T12:04:29;99436.97;;;1.88;100.00
47738;BME280;33502;47.182;27.506;2023-04-06T12:06:55;99436.19;;;1.83;100.00
47738;BME280;33502;47.182;27.506;2023-04-06T12:09:21;99444.78;;;1.88;100.00
47738;BME280;33502;47.182;27.506;2023-04-06T12:11:47;99439.78;;;1.77;100.00
47738;BME280;33502;47.182;27.506;2023-04-06T12:14:13;99440.75;;;1.73;100.00
47738;BME280;33502;47.182;27.506;2023-04-06T12:16:40;99446.13;;;1.66;100.00
47738;BME280;33502;47.182;27.506;2023-04-06T12:19:06;99441.06;;;1.58;100.00
47738;BME280;33502;47.182;27.506;2023-04-06T12:21:35;99441.31;;;1.47;100.00
47738;BME280;33502;47.182;27.506;2023-04-06T12:24:04;99449.97;;;1.48;100.00
47738;BME280;33502;47.182;27.506;2023-04-06T12:26:30;99444.63;;;1.54;100.00
47738;BME280;33502;47.182;27.506;2023-04-06T12:28:57;99443.19;;;1.37;100.00
47738;BME280;33502;47.182;27.506;2023-04-06T12:31:30;99448.53;;;1.31;100.00
47738;BME280;33502;47.182;27.506;2023-04-06T12:33:56;99453.75;;;1.31;100.00
47738;BME280;33502;47.182;27.506;2023-04-06T12:36:22;99451.25;;;1.27;100.00
47738;BME280;33502;47.182;27.506;2023-04-06T12:38:48;99450.97;;;1.41;100.00
47738;BME280;33502;47.182;27.506;2023-04-06T12:41:14;99454.41;;;1.43;100.00
47738;BME280;33502;47.182;27.506;2023-04-06T12:43:41;99445.88;;;1.34;100.00
47738;BME280;33502;47.182;27.506;2023-04-06T12:46:07;99455.50;;;1.32;100.00
47738;BME280;33502;47.182;27.506;2023-04-06T12:48:33;99467.59;;;1.36;100.00
47738;BME280;33502;47.182;27.506;2023-04-06T12:51:01;99461.53;;;1.36;100.00
47738;BME280;33502;47.182;27.506;2023-04-06T12:53:27;99465.03;;;1.33;100.00
47738;BME280;33502;47.182;27.506;2023-04-06T12:55:54;99464.03;;;1.41;100.00
47738;BME280;33502;47.182;27.506;2023-04-06T12:58:21;99474.75;;;1.25;100.00
47738;BME280;33502;47.182;27.506;2023-04-06T13:00:48;99470.34;;;1.27;100.00
47738;BME280;33502;47.182;27.506;2023-04-06T13:03:14;99473.81;;;1.29;100.00
47738;BME280;33502;47.182;27.506;2023-04-06T13:05:50;99475.47;;;1.33;100.00
47738;BME280;33502;47.182;27.506;2023-04-06T13:08:17;99469.38;;;1.34;100.00
47738;BME280;33502;47.182;27.506;2023-04-06T13:10:47;99476.44;;;1.28;100.00
47738;BME280;33502;47.182;27.506;2023-04-06T13:13:23;99474.59;;;1.33;100.00
47738;BME280;33502;47.182;27.506;2023-04-06T13:15:50;99476.19;;;1.42;100.00
47738;BME280;33502;47.182;27.506;2023-04-06T13:18:16;99472.69;;;1.41;100.00
47738;BME280;33502;47.182;27.506;2023-04-06T13:20:42;99477.06;;;1.41;100.00
47738;BME280;33502;47.182;27.506;2023-04-06T13:23:08;99474.41;;;1.44;100.00
47738;BME280;33502;47.182;27.506;2023-04-06T13:25:34;99471.56;;;1.54;100.00
47738;BME280;33502;47.182;27.506;2023-04-06T13:28:00;99468.97;;;1.54;100.00
47738;BME280;33502;47.182;27.506;2023-04-06T13:30:26;99476.03;;;1.49;100.00
47738;BME280;33502;47.182;27.506;2023-04-06T13:32:52;99476.94;;;1.47;100.00
47738;BME280;33502;47.182;27.506;2023-04-06T13:35:18;99473.47;;;1.48;100.00
47738;BME280;33502;47.182;27.506;2023-04-06T13:37:44;99475.38;;;1.40;100.00
47738;BME280;33502;47.182;27.506;2023-04-06T13:40:10;99476.09;;;1.46;100.00
47738;BME280;33502;47.182;27.506;2023-04-06T13:42:36;99476.22;;;1.40;100.00
47738;BME280;33502;47.182;27.506;2023-04-06T13:45:04;99476.22;;;1.40;100.00
47738;BME280;33502;47.182;27.506;2023-04-06T13:47:30;99472.63;;;1.46;100.00
47738;BME280;33502;47.182;27.506;2023-04-06T13:49:55;99469.09;;;1.48;100.00
47738;BME280;33502;47.182;27.506;2023-04-06T13:52:22;99477.06;;;1.41;100.00
47738;BME280;33502;47.182;27.506;2023-04-06T13:54:49;99477.97;;;1.40;100.00
47738;BME280;33502;47.182;27.506;2023-04-06T13:57:14;99489.25;;;1.40;100.00
47738;BME280;33502;47.182;27.506;2023-04-06T13:59:40;99486.63;;;1.42;100.00
47738;BME280;33502;47.182;27.506;2023-04-06T14:02:07;99488.25;;;1.47;100.00
47738;BME280;33502;47.182;27.506;2023-04-06T14:04:34;99489.13;;;1.46;100.00
47738;BME280;33502;47.182;27.506;2023-04-06T14:07:01;99494.34;;;1.48;100.00
47738;BME280;33502;47.182;27.506;2023-04-06T14:09:28;99505.59;;;1.50;100.00
47738;BME280;33502;47.182;27.506;2023-04-06T14:11:54;99502.97;;;1.51;100.00
47738;BME280;33502;47.182;27.506;2023-04-06T14:14:20;99503.94;;;1.46;100.00
47738;BME280;33502;47.182;27.506;2023-04-06T14:16:47;99504.78;;;1.48;100.00
47738;BME280;33502;47.182;27.506;2023-04-06T14:19:15;99497.00;;;1.43;100.00
47738;BME280;33502;47.182;27.506;2023-04-06T14:21:41;99500.53;;;1.42;100.00
47738;BME280;33502;47.182;27.506;2023-04-06T14:24:08;99500.53;;;1.41;100.00
47738;BME280;33502;47.182;27.506;2023-04-06T14:26:35;99501.41;;;1.41;100.00
47738;BME280;33502;47.182;27.506;2023-04-06T14:29:02;99502.22;;;1.43;100.00
47738;BME280;33502;47.182;27.506;2023-04-06T14:31:27;99505.91;;;1.33;100.00
47738;BME280;33502;47.182;27.506;2023-04-06T14:33:54;99495.59;;;1.27;100.00
47738;BME280;33502;47.182;27.506;2023-04-06T14:36:20;99505.34;;;1.15;100.00
47738;BME280;33502;47.182;27.506;2023-04-06T14:38:46;99510.59;;;1.12;100.00
47738;BME280;33502;47.182;27.506;2023-04-06T14:41:17;99508.91;;;1.11;100.00
47738;BME280;33502;47.182;27.506;2023-04-06T14:43:44;99509.00;;;1.05;100.00
47738;BME280;33502;47.182;27.506;2023-04-06T14:46:10;99515.13;;;1.03;100.00
47738;BME280;33502;47.182;27.506;2023-04-06T14:48:35;99514.31;;;0.99;100.00
47738;BME280;33502;47.182;27.506;2023-04-06T14:51:02;99519.53;;;0.99;100.00
47738;BME280;33502;47.182;27.506;2023-04-06T14:53:28;99521.28;;;0.98;100.00
47738;BME280;33502;47.182;27.506;2023-04-06T14:55:54;99525.56;;;1.03;100.00
47738;BME280;33502;47.182;27.506;2023-04-06T14:58:21;99526.38;;;1.05;100.00
47738;BME280;33502;47.182;27.506;2023-04-06T15:00:48;99532.50;;;1.04;100.00
47738;BME280;33502;47.182;27.506;2023-04-06T15:03:13;99531.59;;;1.05;100.00
47738;BME280;33502;47.182;27.506;2023-04-06T15:05:39;99537.66;;;1.07;100.00
47738;BME280;33502;47.182;27.506;2023-04-06T15:08:05;99536.78;;;1.08;100.00
47738;BME280;33502;47.182;27.506;2023-04-06T15:10:32;99544.59;;;1.08;100.00
47738;BME280;33502;47.182;27.506;2023-04-06T15:12:58;99549.81;;;1.06;100.00
47738;BME280;33502;47.182;27.506;2023-04-06T15:15:24;99549.91;;;1.02;100.00
47738;BME280;33502;47.182;27.506;2023-04-06T15:17:50;99552.56;;;0.98;100.00
47738;BME280;33502;47.182;27.506;2023-04-06T15:20:16;99561.22;;;0.99;100.00
47738;BME280;33502;47.182;27.506;2023-04-06T15:22:41;99562.13;;;1.00;100.00
47738;BME280;33502;47.182;27.506;2023-04-06T15:25:07;99562.13;;;1.00;100.00
47738;BME280;33502;47.182;27.506;2023-04-06T15:27:33;99554.31;;;0.98;100.00
47738;BME280;33502;47.182;27.506;2023-04-06T15:29:59;99561.28;;;0.97;100.00
47738;BME280;33502;47.182;27.506;2023-04-06T15:32:25;99565.59;;;0.98;100.00
47738;BME280;33502;47.182;27.506;2023-04-06T15:34:53;99562.13;;;0.98;100.00
47738;BME280;33502;47.182;27.506;2023-04-06T15:37:18;99564.75;;;0.98;100.00
47738;BME280;33502;47.182;27.506;2023-04-06T15:39:44;99570.00;;;0.95;100.00
47738;BME280;33502;47.182;27.506;2023-04-06T15:42:10;99582.19;;;0.93;100.00
47738;BME280;33502;47.182;27.506;2023-04-06T15:44:36;99585.69;;;0.92;100.00
47738;BME280;33502;47.182;27.506;2023-04-06T15:47:02;99587.47;;;0.88;100.00
47738;BME280;33502;47.182;27.506;2023-04-06T15:49:28;99589.19;;;0.89;100.00
47738;BME280;33502;47.182;27.506;2023-04-06T15:51:54;99590.09;;;0.88;100.00
47738;BME280;33502;47.182;27.506;2023-04-06T15:54:19;99591.88;;;0.86;100.00
47738;BME280;33502;47.182;27.506;2023-04-06T15:56:47;99595.34;;;0.85;100.00
47738;BME280;33502;47.182;27.506;2023-04-06T15:59:13;99604.06;;;0.84;100.00
47738;BME280;33502;47.182;27.506;2023-04-06T16:01:39;99601.44;;;0.84;100.00
47738;BME280;33502;47.182;27.506;2023-04-06T16:04:07;99608.41;;;0.82;100.00
47738;BME280;33502;47.182;27.506;2023-04-06T16:06:34;99612.78;;;0.80;100.00
47738;BME280;33502;47.182;27.506;2023-04-06T16:09:00;99608.50;;;0.76;100.00
47738;BME280;33502;47.182;27.506;2023-04-06T16:11:27;99619.00;;;0.71;100.00
47738;BME280;33502;47.182;27.506;2023-04-06T16:13:53;99623.41;;;0.65;100.00
47738;BME280;33502;47.182;27.506;2023-04-06T16:16:18;99620.03;;;0.60;100.00
47738;BME280;33502;47.182;27.506;2023-04-06T16:18:45;99628.78;;;0.55;100.00
47738;BME280;33502;47.182;27.506;2023-04-06T16:21:17;99624.47;;;0.51;100.00
47738;BME280;33502;47.182;27.506;2023-04-06T16:23:44;99621.06;;;0.46;100.00
47738;BME280;33502;47.182;27.506;2023-04-06T16:26:14;99624.63;;;0.41;100.00
47738;BME280;33502;47.182;27.506;2023-04-06T16:28:41;99622.06;;;0.36;100.00
47738;BME280;33502;47.182;27.506;2023-04-06T16:31:07;99629.03;;;0.34;100.00